Time;durP1;ratioP1;P1;durP2;ratioP2;P2;SDS_P1;SDS_P2;PMS_P1;PMS_P2;Temp;Humidity;BMP_temperature;BMP_pressure;BME280_temperature;BME280_humidity;BME280_pressure;Samples;Min_cycle;Max_cycle;Signal;HPM_P1;HPM_P2
2023/04/14 00:00:40;;;;;;;5.68;1.25;;;7.60;99.90;;;;;;5071531;28;20043;-39
2023/04/14 00:03:06;;;;;;;5.65;1.55;;;7.60;99.90;;;;;;5071038;28;20032;-39
2023/04/14 00:05:33;;;;;;;4.28;1.73;;;7.60;99.90;;;;;;5065784;28;20380;-37
2023/04/14 00:07:59;;;;;;;4.03;1.07;;;7.60;99.90;;;;;;5069432;28;20024;-39
2023/04/14 00:10:25;;;;;;;9.00;1.77;;;7.60;99.90;;;;;;5059513;28;20509;-41
2023/04/14 00:12:51;;;;;;;13.90;1.48;;;7.60;99.90;;;;;;5065132;28;20381;-38
2023/04/14 00:15:17;;;;;;;11.88;1.73;;;7.50;99.90;;;;;;5071658;28;20025;-39
2023/04/14 00:17:43;;;;;;;10.88;2.42;;;7.50;99.90;;;;;;5059909;28;20535;-35
2023/04/14 00:20:09;;;;;;;16.10;3.45;;;7.50;99.90;;;;;;5073283;28;20021;-38
2023/04/14 00:22:35;;;;;;;17.33;1.83;;;7.50;99.90;;;;;;5073115;28;20035;-39
2023/04/14 00:25:00;;;;;;;3.90;1.40;;;7.50;99.90;;;;;;5062570;28;20055;-38
2023/04/14 00:27:27;;;;;;;7.43;2.20;;;7.50;99.90;;;;;;5053439;28;20144;-40
2023/04/14 00:29:53;;;;;;;10.57;1.95;;;7.50;99.90;;;;;;5053132;28;20052;-38
2023/04/14 00:32:18;;;;;;;5.72;1.67;;;7.50;99.90;;;;;;5053078;28;20686;-41
2023/04/14 00:34:44;;;;;;;10.35;2.35;;;7.50;99.90;;;;;;5052747;28;20029;-34
2023/04/14 00:37:10;;;;;;;10.25;2.17;;;7.50;99.90;;;;;;5059120;28;20138;-39
2023/04/14 00:39:35;;;;;;;7.43;1.67;;;7.50;99.90;;;;;;5070018;28;20017;-40
2023/04/14 00:42:02;;;;;;;5.55;1.13;;;7.50;99.90;;;;;;5072922;28;20021;-34
2023/04/14 00:44:28;;;;;;;8.85;1.83;;;7.50;99.90;;;;;;5063195;28;20017;-36
2023/04/14 00:46:55;;;;;;;11.63;1.92;;;7.40;99.90;;;;;;5054224;28;20039;-40
2023/04/14 00:49:21;;;;;;;6.15;1.52;;;7.40;99.90;;;;;;5064865;28;20040;-38
2023/04/14 00:51:47;;;;;;;6.95;1.85;;;7.30;99.90;;;;;;5072694;28;20487;-40
2023/04/14 00:54:16;;;;;;;5.18;2.30;;;7.30;99.90;;;;;;5071797;28;20481;-38
2023/04/14 00:56:42;;;;;;;6.35;1.40;;;7.30;99.90;;;;;;5072717;28;20393;-39
2023/04/14 00:59:08;;;;;;;8.93;2.30;;;7.30;99.90;;;;;;5072689;28;20016;-39
2023/04/14 01:01:37;;;;;;;5.43;1.80;;;7.30;99.90;;;;;;5071807;28;20059;-39
2023/04/14 01:04:03;;;;;;;14.65;2.20;;;7.30;99.90;;;;;;5071947;28;20038;-42
2023/04/14 01:06:29;;;;;;;10.65;2.63;;;7.40;99.90;;;;;;5070911;28;20032;-40
2023/04/14 01:08:56;;;;;;;12.43;2.35;;;7.40;99.90;;;;;;5072691;28;20017;-35
2023/04/14 01:11:26;;;;;;;7.72;2.00;;;7.40;99.90;;;;;;5072426;28;20032;-40
2023/04/14 01:14:06;;;;;;;6.70;2.78;;;7.30;99.90;;;;;;5071532;28;20051;-42
2023/04/14 01:16:37;;;;;;;11.70;2.63;;;7.30;99.90;;;;;;5058579;28;20422;-40
2023/04/14 01:19:41;;;;;;;7.47;2.78;;;7.20;99.90;;;;;;5060494;28;20376;-43
2023/04/14 01:22:09;;;;;;;8.73;2.22;;;7.20;99.90;;;;;;5053462;28;20063;-39
2023/04/14 01:25:17;;;;;;;7.95;2.50;;;7.10;99.90;;;;;;5056421;28;20039;-36
2023/04/14 01:27:46;;;;;;;8.88;2.10;;;7.00;99.90;;;;;;5041000;28;20041;-41
2023/04/14 01:30:30;;;;;;;10.50;2.60;;;6.90;99.90;;;;;;5076440;28;20060;-37
2023/04/14 01:33:00;;;;;;;5.63;2.25;;;6.90;99.90;;;;;;5062952;28;20037;-36
2023/04/14 01:35:53;;;;;;;7.60;2.20;;;6.80;99.90;;;;;;5056391;28;20512;-34
2023/04/14 01:38:24;;;;;;;6.00;2.58;;;6.70;99.90;;;;;;5064501;28;20029;-41
2023/04/14 01:40:51;;;;;;;8.20;1.80;;;6.70;99.90;;;;;;5076474;28;20028;-39
2023/04/14 01:43:25;;;;;;;10.07;2.90;;;6.60;99.90;;;;;;5066354;28;20025;-37
2023/04/14 01:45:53;;;;;;;4.18;2.03;;;6.60;99.90;;;;;;5067986;28;20115;-36
2023/04/14 01:48:18;;;;;;;;;;;6.60;99.90;;;;;;5070416;28;20017;-41
2023/04/14 01:50:46;;;;;;;7.88;2.20;;;6.60;99.90;;;;;;5056063;28;20013;-42
2023/04/14 01:53:13;;;;;;;9.90;2.08;;;6.50;99.90;;;;;;5059514;28;20047;-40
2023/04/14 01:55:40;;;;;;;8.73;2.22;;;6.60;99.90;;;;;;5065958;28;20366;-40
2023/04/14 01:58:07;;;;;;;6.13;2.22;;;6.60;99.90;;;;;;5075942;28;20028;-39
2023/04/14 02:00:35;;;;;;;5.47;2.60;;;6.60;99.90;;;;;;5066939;28;20040;-38
2023/04/14 02:03:02;;;;;;;8.48;2.33;;;6.60;99.90;;;;;;5068843;28;20044;-39
2023/04/14 02:05:30;;;;;;;8.77;2.10;;;6.60;99.90;;;;;;5062307;28;20386;-36
2023/04/14 02:07:57;;;;;;;;;;;6.60;99.90;;;;;;5058258;28;20025;-38
2023/04/14 02:10:23;;;;;;;9.00;2.38;;;6.50;99.90;;;;;;5069623;28;19908;-38
2023/04/14 02:12:53;;;;;;;5.10;2.58;;;6.40;99.90;;;;;;5075361;28;20028;-38
2023/04/14 02:15:21;;;;;;;7.07;1.95;;;6.40;99.90;;;;;;5075569;28;20032;-40
2023/04/14 02:17:49;;;;;;;10.02;2.55;;;6.40;99.90;;;;;;5070377;28;20026;-35
2023/04/14 02:20:16;;;;;;;10.15;3.75;;;6.40;99.90;;;;;;5059091;28;20442;-38
2023/04/14 02:22:42;;;;;;;6.30;1.98;;;6.30;99.90;;;;;;5065389;28;20451;-38
2023/04/14 02:25:08;;;;;;;6.60;2.30;;;6.30;99.90;;;;;;5071711;28;20024;-33
2023/04/14 02:28:00;;;;;;;5.88;2.40;;;6.30;99.90;;;;;;5071764;28;20032;-38
2023/04/14 02:30:41;;;;;;;3.22;2.05;;;6.30;99.90;;;;;;5064900;28;20120;-38
2023/04/14 02:33:11;;;;;;;4.15;1.90;;;6.20;99.90;;;;;;5074647;28;20028;-35
2023/04/14 02:36:01;;;;;;;11.60;2.33;;;6.20;99.90;;;;;;5055517;28;20535;-38
2023/04/14 02:38:41;;;;;;;6.78;2.35;;;6.20;99.90;;;;;;5073710;28;20039;-35
2023/04/14 02:41:11;;;;;;;7.03;2.78;;;6.30;99.90;;;;;;5075132;28;20032;-37
2023/04/14 02:43:43;;;;;;;9.27;2.55;;;6.20;99.90;;;;;;5075302;28;20542;-38
2023/04/14 02:46:12;;;;;;;4.80;2.00;;;6.30;99.90;;;;;;5075133;28;20034;-40
2023/04/14 02:48:41;;;;;;;9.88;2.60;;;6.20;99.90;;;;;;5063901;28;20021;-37
2023/04/14 02:51:10;;;;;;;9.98;3.08;;;6.20;99.90;;;;;;5055170;28;20033;-39
2023/04/14 02:53:36;;;;;;;7.75;2.28;;;6.30;99.90;;;;;;5063662;28;20536;-38
2023/04/14 02:56:03;;;;;;;5.95;3.03;;;6.30;99.90;;;;;;5074869;28;20099;-39
2023/04/14 02:58:29;;;;;;;6.78;2.25;;;6.30;99.90;;;;;;5075065;28;20454;-36
2023/04/14 03:00:56;;;;;;;8.35;2.10;;;6.30;99.90;;;;;;5071157;28;20045;-39
2023/04/14 03:03:23;;;;;;;9.73;2.33;;;6.20;99.90;;;;;;5055293;28;20029;-36
2023/04/14 03:05:49;;;;;;;8.68;2.50;;;6.20;99.90;;;;;;5054916;28;20751;-37
2023/04/14 03:08:16;;;;;;;6.97;2.42;;;6.10;99.90;;;;;;5061501;28;20055;-35
2023/04/14 03:10:46;;;;;;;11.80;2.70;;;6.10;99.90;;;;;;5072713;28;20111;-35
2023/04/14 03:13:14;;;;;;;9.60;2.70;;;6.10;99.90;;;;;;5074150;28;20028;-39
2023/04/14 03:15:41;;;;;;;12.77;2.70;;;6.10;99.90;;;;;;5074453;28;20122;-38
2023/04/14 03:18:07;;;;;;;5.47;2.75;;;6.00;99.90;;;;;;5074667;28;20078;-30
2023/04/14 03:20:33;;;;;;;5.43;2.55;;;6.00;99.90;;;;;;5073823;28;20024;-37
2023/04/14 03:23:03;;;;;;;11.25;3.55;;;6.00;99.90;;;;;;5073056;28;20028;-38
2023/04/14 03:25:32;;;;;;;5.80;3.05;;;6.10;99.90;;;;;;5074596;28;20021;-36
2023/04/14 03:28:01;;;;;;;8.10;3.30;;;6.20;99.90;;;;;;5074367;28;20381;-38
2023/04/14 03:30:30;;;;;;;13.38;3.72;;;6.30;99.90;;;;;;5068505;28;20025;-37
2023/04/14 03:33:04;;;;;;;12.55;2.97;;;6.20;99.90;;;;;;5070393;28;20468;-38
2023/04/14 03:35:31;;;;;;;12.50;2.55;;;6.10;99.90;;;;;;5068459;28;20507;-35
2023/04/14 03:37:59;;;;;;;11.07;3.55;;;6.00;99.90;;;;;;5072699;28;20476;-38
2023/04/14 03:40:30;;;;;;;10.93;3.38;;;5.90;99.90;;;;;;5072086;28;20752;-36
2023/04/14 03:42:57;;;;;;;9.90;3.45;;;5.90;99.90;;;;;;5063553;28;20063;-38
2023/04/14 03:45:25;;;;;;;8.23;3.60;;;5.80;99.90;;;;;;5070130;28;20021;-38
2023/04/14 03:47:56;;;;;;;12.05;3.83;;;5.80;99.90;;;;;;5070763;28;20540;-36
2023/04/14 03:50:25;;;;;;;9.60;3.53;;;5.70;99.90;;;;;;5071822;28;20028;-39
2023/04/14 03:52:52;;;;;;;5.43;2.83;;;5.70;99.90;;;;;;5072036;28;20115;-34
2023/04/14 03:55:18;;;;;;;17.73;3.85;;;5.60;99.90;;;;;;5066869;28;20028;-36
2023/04/14 03:57:46;;;;;;;11.75;3.28;;;5.70;99.90;;;;;;5069790;28;20036;-34
2023/04/14 04:00:14;;;;;;;8.57;3.47;;;5.70;99.90;;;;;;5072732;28;20060;-35
2023/04/14 04:02:41;;;;;;;6.00;4.22;;;5.70;99.90;;;;;;5071177;28;20037;-35
2023/04/14 04:05:08;;;;;;;4.43;3.38;;;5.70;99.90;;;;;;5073337;28;20070;-39
2023/04/14 04:07:34;;;;;;;8.10;3.15;;;5.70;99.90;;;;;;5067395;28;20078;-38
2023/04/14 04:10:04;;;;;;;6.22;3.28;;;5.70;99.90;;;;;;5073357;28;20016;-37
2023/04/14 04:12:30;;;;;;;10.95;3.50;;;5.60;99.90;;;;;;5071233;28;20552;-37
2023/04/14 04:14:56;;;;;;;14.15;3.00;;;5.60;99.90;;;;;;5069547;28;20062;-37
2023/04/14 04:17:23;;;;;;;16.00;3.65;;;5.50;99.90;;;;;;5072589;28;20079;-38
2023/04/14 04:19:50;;;;;;;19.50;4.20;;;5.40;99.90;;;;;;5072442;28;20469;-37
2023/04/14 04:22:19;;;;;;;6.78;3.03;;;5.40;99.90;;;;;;5070621;28;20016;-39
2023/04/14 04:24:46;;;;;;;7.90;3.20;;;5.50;99.90;;;;;;5058808;28;20465;-36
2023/04/14 04:27:12;;;;;;;5.13;2.75;;;5.50;99.90;;;;;;5067086;28;20496;-38
2023/04/14 04:29:38;;;;;;;10.20;3.25;;;5.50;99.90;;;;;;5072296;28;20020;-39
2023/04/14 04:32:05;;;;;;;6.30;3.60;;;5.50;99.90;;;;;;5068072;28;20033;-38
2023/04/14 04:34:31;;;;;;;7.45;3.00;;;5.50;99.90;;;;;;5070691;28;20037;-40
2023/04/14 04:37:00;;;;;;;9.75;3.13;;;5.50;99.90;;;;;;5070961;28;20029;-34
2023/04/14 04:39:27;;;;;;;7.25;2.80;;;5.40;99.90;;;;;;5071033;28;20370;-35
2023/04/14 04:42:04;;;;;;;7.13;2.95;;;5.40;99.90;;;;;;5070770;28;20028;-36
2023/04/14 04:44:33;;;;;;;5.75;2.70;;;5.40;99.90;;;;;;5064773;28;20029;-37
2023/04/14 04:46:59;;;;;;;6.13;3.60;;;5.30;99.90;;;;;;5065054;28;20474;-36
2023/04/14 04:49:26;;;;;;;10.60;2.97;;;5.30;99.90;;;;;;5052697;28;20020;-36
2023/04/14 04:51:51;;;;;;;8.55;3.30;;;5.20;99.90;;;;;;5063024;28;20523;-38
2023/04/14 04:54:17;;;;;;;5.65;2.50;;;5.30;99.90;;;;;;5071560;28;20021;-39
2023/04/14 04:56:43;;;;;;;5.82;2.38;;;5.30;99.90;;;;;;5072472;28;20389;-35
2023/04/14 04:59:09;;;;;;;7.93;3.03;;;5.30;99.90;;;;;;5072339;28;20100;-37
2023/04/14 05:01:35;;;;;;;7.22;2.67;;;5.40;99.90;;;;;;5072704;28;20037;-36
2023/04/14 05:04:01;;;;;;;6.35;2.90;;;5.40;99.90;;;;;;5072144;28;20466;-37
2023/04/14 05:06:27;;;;;;;7.20;2.88;;;5.40;99.90;;;;;;5072704;28;20067;-38
2023/04/14 05:08:55;;;;;;;5.88;2.88;;;5.50;99.90;;;;;;5071300;28;20025;-36
2023/04/14 05:11:22;;;;;;;5.13;2.83;;;5.50;99.90;;;;;;5072675;28;20138;-36
2023/04/14 05:13:47;;;;;;;12.25;3.50;;;5.60;99.90;;;;;;5072781;28;20481;-38
2023/04/14 05:16:14;;;;;;;6.53;2.75;;;5.70;99.90;;;;;;5071502;28;20086;-37
2023/04/14 05:18:40;;;;;;;8.82;4.35;;;5.80;99.90;;;;;;5072535;28;20029;-39
2023/04/14 05:21:14;;;;;;;6.85;2.95;;;5.90;99.90;;;;;;5072475;28;20471;-36
2023/04/14 05:23:42;;;;;;;9.50;2.55;;;5.90;99.90;;;;;;5071223;28;20025;-38
2023/04/14 05:26:08;;;;;;;8.55;3.22;;;5.90;99.90;;;;;;5072673;28;20044;-35
2023/04/14 05:28:34;;;;;;;7.93;3.08;;;5.90;99.90;;;;;;5071179;28;20032;-34
2023/04/14 05:31:00;;;;;;;13.73;3.05;;;5.90;99.90;;;;;;5072525;28;20035;-38
2023/04/14 05:33:26;;;;;;;7.45;3.15;;;5.90;99.90;;;;;;5072488;28;20490;-36
2023/04/14 05:35:52;;;;;;;7.20;3.25;;;5.90;99.90;;;;;;5072423;28;20052;-34
2023/04/14 05:38:18;;;;;;;8.63;2.63;;;6.00;99.90;;;;;;5071135;28;20101;-34
2023/04/14 05:40:45;;;;;;;15.48;4.25;;;6.00;99.90;;;;;;5071043;28;20484;-36
2023/04/14 05:43:11;;;;;;;10.63;2.92;;;6.10;99.90;;;;;;5070756;28;20021;-36
2023/04/14 05:45:37;;;;;;;16.45;3.67;;;6.10;99.90;;;;;;5056793;28;20021;-36
2023/04/14 05:48:03;;;;;;;8.65;2.65;;;6.10;99.90;;;;;;5066191;28;20136;-33
2023/04/14 05:50:29;;;;;;;6.43;3.03;;;6.10;99.90;;;;;;5070265;28;20111;-37
2023/04/14 05:52:54;;;;;;;8.90;3.40;;;6.20;99.90;;;;;;5070864;28;20456;-37
2023/04/14 05:55:20;;;;;;;9.57;3.08;;;6.30;99.90;;;;;;5067414;28;20033;-36
2023/04/14 05:57:46;;;;;;;9.48;3.10;;;6.40;99.90;;;;;;5072140;28;20059;-38
2023/04/14 06:00:12;;;;;;;5.45;2.35;;;6.50;99.90;;;;;;5072090;28;20437;-39
2023/04/14 06:02:39;;;;;;;11.77;2.75;;;6.50;99.90;;;;;;5071846;28;20405;-39
2023/04/14 06:05:06;;;;;;;13.07;3.05;;;6.60;99.90;;;;;;5073129;28;20028;-39
2023/04/14 06:07:35;;;;;;;10.43;3.22;;;6.70;99.90;;;;;;5070386;28;20063;-39
2023/04/14 06:10:01;;;;;;;7.40;3.40;;;6.70;99.90;;;;;;5059901;28;20498;-37
2023/04/14 06:12:27;;;;;;;7.03;2.50;;;6.70;99.90;;;;;;5073533;28;20024;-38
2023/04/14 06:14:54;;;;;;;8.60;3.08;;;6.80;99.90;;;;;;5064483;28;20090;-36
2023/04/14 06:17:20;;;;;;;9.93;2.92;;;6.90;99.90;;;;;;5075704;28;20052;-38
2023/04/14 06:19:47;;;;;;;9.68;3.17;;;7.00;99.90;;;;;;5060803;28;20507;-38
2023/04/14 06:22:17;;;;;;;7.63;2.85;;;7.00;99.90;;;;;;5056251;28;20033;-37
2023/04/14 06:24:44;;;;;;;11.52;3.35;;;7.10;99.90;;;;;;5063816;28;20178;-35
2023/04/14 06:27:09;;;;;;;9.07;2.70;;;7.10;99.90;;;;;;5074098;28;20036;-36
2023/04/14 06:29:35;;;;;;;12.23;3.70;;;7.20;99.90;;;;;;5075623;28;20028;-36
2023/04/14 06:32:01;;;;;;;7.82;3.22;;;7.20;99.90;;;;;;5062619;28;20017;-35
2023/04/14 06:34:27;;;;;;;8.98;2.55;;;7.30;99.90;;;;;;5056872;28;20036;-35
2023/04/14 06:36:52;;;;;;;6.97;2.60;;;7.40;99.90;;;;;;5056263;28;20055;-36
2023/04/14 06:39:21;;;;;;;5.40;2.88;;;7.50;99.90;;;;;;5055836;28;20025;-40
2023/04/14 06:41:47;;;;;;;6.95;2.53;;;7.60;99.90;;;;;;5063241;28;20523;-39
2023/04/14 06:44:12;;;;;;;11.25;2.72;;;7.70;99.90;;;;;;5062250;28;20049;-38
2023/04/14 06:46:38;;;;;;;4.72;2.63;;;7.80;99.90;;;;;;5068221;28;20035;-42
2023/04/14 06:49:04;;;;;;;9.70;2.88;;;7.90;99.90;;;;;;5054619;28;20481;-38
2023/04/14 06:51:31;;;;;;;7.82;2.50;;;8.00;99.90;;;;;;5054697;28;20532;-37
2023/04/14 06:53:57;;;;;;;7.68;3.10;;;8.20;99.90;;;;;;5058032;28;20025;-38
2023/04/14 06:56:22;;;;;;;4.28;2.40;;;8.30;99.90;;;;;;5062301;28;20101;-39
2023/04/14 06:58:48;;;;;;;5.90;2.40;;;8.40;99.90;;;;;;5063771;28;20028;-41
2023/04/14 07:01:14;;;;;;;13.20;2.97;;;8.50;99.90;;;;;;5069806;28;20032;-39
2023/04/14 07:03:58;;;;;;;11.93;2.95;;;8.60;99.90;;;;;;5072833;28;20031;-37
2023/04/14 07:06:25;;;;;;;10.82;2.72;;;8.70;99.90;;;;;;5071791;28;20037;-39
2023/04/14 07:08:50;;;;;;;3.92;2.05;;;8.80;99.90;;;;;;5061290;28;20025;-38
2023/04/14 07:11:16;;;;;;;13.88;3.00;;;9.00;99.90;;;;;;5067143;28;20017;-37
2023/04/14 07:13:42;;;;;;;4.65;1.90;;;9.10;99.90;;;;;;5068735;28;20043;-37
2023/04/14 07:16:07;;;;;;;13.35;2.35;;;9.20;99.90;;;;;;5072125;28;20021;-37
2023/04/14 07:18:34;;;;;;;6.20;1.92;;;9.30;99.90;;;;;;5066497;28;20534;-38
2023/04/14 07:21:01;;;;;;;8.07;2.15;;;9.40;99.90;;;;;;5071458;28;20086;-38
2023/04/14 07:23:26;;;;;;;3.60;1.90;;;9.40;99.90;;;;;;5057961;28;20025;-38
2023/04/14 07:25:54;;;;;;;5.95;1.65;;;9.50;99.90;;;;;;5068839;28;20115;-35
2023/04/14 07:28:21;;;;;;;4.93;2.33;;;9.50;99.90;;;;;;5074554;28;20477;-39
2023/04/14 07:30:48;;;;;;;9.48;2.72;;;9.50;99.90;;;;;;5071970;28;20032;-35
2023/04/14 07:33:18;;;;;;;3.10;2.17;;;9.50;99.90;;;;;;5058778;28;20047;-36
2023/04/14 07:35:51;;;;;;;7.40;2.13;;;9.70;99.90;;;;;;5064443;28;20549;-36
2023/04/14 07:38:17;;;;;;;4.25;1.83;;;9.80;99.90;;;;;;5072106;28;20020;-36
2023/04/14 07:40:43;;;;;;;5.22;2.08;;;10.00;99.90;;;;;;5071853;28;20489;-36
2023/04/14 07:43:09;;;;;;;6.47;1.48;;;10.10;99.90;;;;;;5066539;28;20028;-34
2023/04/14 07:45:36;;;;;;;4.80;2.25;;;10.30;99.90;;;;;;5073828;28;20029;-39
2023/04/14 07:48:01;;;;;;;6.32;1.60;;;10.30;99.90;;;;;;5066167;28;20485;-39
2023/04/14 07:50:27;;;;;;;6.78;1.98;;;10.40;99.90;;;;;;5068305;28;20024;-35
2023/04/14 07:52:53;;;;;;;6.68;2.10;;;10.40;99.90;;;;;;5072447;28;20067;-39
2023/04/14 07:55:18;;;;;;;12.25;2.33;;;10.50;99.90;;;;;;5073686;28;20035;-37
2023/04/14 07:57:44;;;;;;;8.10;1.60;;;10.70;99.90;;;;;;5063983;28;20021;-38
2023/04/14 08:00:10;;;;;;;3.42;1.40;;;10.80;99.90;;;;;;5053131;28;20039;-38
2023/04/14 08:02:37;;;;;;;8.15;2.00;;;11.10;99.90;;;;;;5073001;28;20520;-37
2023/04/14 08:05:03;;;;;;;2.67;1.35;;;11.20;99.90;;;;;;5073757;28;20539;-34
2023/04/14 08:07:29;;;;;;;14.05;2.63;;;11.50;99.90;;;;;;5072037;28;20063;-36
2023/04/14 08:09:55;;;;;;;3.35;1.95;;;11.50;99.90;;;;;;5073072;28;20538;-36
2023/04/14 08:12:20;;;;;;;5.72;1.75;;;11.60;99.90;;;;;;5073240;28;20056;-37
2023/04/14 08:14:46;;;;;;;5.25;1.92;;;11.70;99.90;;;;;;5073584;28;20024;-36
2023/04/14 08:17:13;;;;;;;6.88;2.30;;;11.70;99.90;;;;;;5072570;28;20071;-38
2023/04/14 08:19:38;;;;;;;8.65;3.05;;;11.70;99.90;;;;;;5073235;28;20469;-35
2023/04/14 08:22:04;;;;;;;10.00;1.85;;;11.80;99.90;;;;;;5071928;28;20025;-40
2023/04/14 08:24:30;;;;;;;2.13;1.30;;;11.90;99.90;;;;;;5073151;28;20108;-37
2023/04/14 08:26:56;;;;;;;3.33;1.50;;;12.00;99.90;;;;;;5073092;28;20093;-37
2023/04/14 08:29:22;;;;;;;7.55;1.63;;;12.00;99.90;;;;;;5064920;28;20032;-38
2023/04/14 08:31:47;;;;;;;6.13;2.45;;;12.10;99.90;;;;;;5053046;28;20494;-39
2023/04/14 08:34:14;;;;;;;4.97;1.60;;;12.20;99.90;;;;;;5052749;28;20033;-37
2023/04/14 08:36:40;;;;;;;3.35;1.33;;;12.20;99.90;;;;;;5070682;28;20028;-38
2023/04/14 08:39:05;;;;;;;5.18;2.10;;;12.20;99.90;;;;;;5071613;28;20055;-40
2023/04/14 08:41:33;;;;;;;12.95;2.20;;;12.30;99.90;;;;;;5066621;28;20021;-35
2023/04/14 08:44:00;;;;;;;2.47;1.55;;;12.50;99.90;;;;;;5065704;28;20466;-38
2023/04/14 08:46:27;;;;;;;6.88;1.70;;;12.70;99.90;;;;;;5066605;28;20020;-37
2023/04/14 08:49:00;;;;;;;6.60;1.55;;;12.80;99.90;;;;;;5071628;28;20028;-37
2023/04/14 08:51:44;;;;;;;4.55;1.60;;;13.00;99.90;;;;;;5064599;28;20397;-39
2023/04/14 08:54:11;;;;;;;10.20;1.20;;;13.20;99.90;;;;;;5066873;28;20051;-38
2023/04/14 08:56:39;;;;;;;2.25;0.93;;;13.20;99.90;;;;;;5071190;28;20524;-37
2023/04/14 08:59:06;;;;;;;2.17;1.17;;;13.30;99.90;;;;;;5067345;28;20503;-36
2023/04/14 09:01:34;;;;;;;9.05;1.00;;;13.40;99.90;;;;;;5066451;28;20462;-36
2023/04/14 09:04:03;;;;;;;8.93;0.98;;;13.50;99.90;;;;;;5057778;28;20167;-40
2023/04/14 09:06:30;;;;;;;2.47;0.75;;;13.60;99.90;;;;;;5071330;28;20024;-38
2023/04/14 09:08:59;;;;;;;5.72;1.30;;;13.60;99.90;;;;;;5069149;28;20546;-35
2023/04/14 09:11:25;;;;;;;2.25;0.90;;;13.80;99.90;;;;;;5065540;28;20029;-37
2023/04/14 09:13:52;;;;;;;5.68;1.50;;;13.90;99.90;;;;;;5065757;28;20561;-36
2023/04/14 09:16:18;;;;;;;4.38;1.23;;;13.90;99.90;;;;;;5071298;28;20443;-38
2023/04/14 09:18:45;;;;;;;7.97;1.17;;;13.90;99.90;;;;;;5070096;28;20028;-40
2023/04/14 09:21:11;;;;;;;4.78;1.10;;;13.90;99.90;;;;;;5071155;28;20025;-38
2023/04/14 09:23:40;;;;;;;3.42;1.42;;;13.90;99.90;;;;;;5064265;28;20046;-34
2023/04/14 09:26:08;;;;;;;6.00;1.30;;;13.90;99.90;;;;;;5068218;28;20647;-38
2023/04/14 09:28:34;;;;;;;4.95;1.20;;;13.80;99.90;;;;;;5072416;28;20507;-35
2023/04/14 09:31:01;;;;;;;1.63;0.60;;;13.80;99.90;;;;;;5070307;28;20055;-36
2023/04/14 09:33:27;;;;;;;3.10;0.98;;;13.70;99.90;;;;;;5072228;28;20025;-36
2023/04/14 09:35:53;;;;;;;4.72;1.33;;;13.70;99.90;;;;;;5072201;28;20099;-35
2023/04/14 09:38:38;;;;;;;9.50;1.02;;;13.70;99.90;;;;;;5071354;28;20036;-37
2023/04/14 09:41:08;;;;;;;4.40;1.40;;;13.70;99.90;;;;;;5070920;28;20025;-38
2023/04/14 09:43:35;;;;;;;8.82;1.63;;;13.70;99.90;;;;;;5072069;28;20075;-34
2023/04/14 09:46:08;;;;;;;6.18;1.08;;;13.80;99.90;;;;;;5074036;28;20013;-39
2023/04/14 09:48:36;;;;;;;5.45;1.10;;;13.70;99.90;;;;;;5076479;28;20103;-33
2023/04/14 09:51:08;;;;;;;2.83;1.15;;;13.70;99.90;;;;;;5074638;28;20028;-38
2023/04/14 09:53:39;;;;;;;6.30;1.33;;;13.70;99.90;;;;;;5074395;28;20046;-39
2023/04/14 09:56:09;;;;;;;4.30;1.25;;;13.60;99.90;;;;;;5075975;28;20031;-34
2023/04/14 09:58:36;;;;;;;3.17;1.27;;;13.70;99.90;;;;;;5076168;28;20562;-36
2023/04/14 10:01:03;;;;;;;2.03;1.00;;;13.80;99.90;;;;;;5075964;28;20510;-37
2023/04/14 10:03:34;;;;;;;4.18;1.45;;;13.90;99.90;;;;;;5072826;28;20071;-38
2023/04/14 10:06:01;;;;;;;6.25;1.00;;;14.00;99.90;;;;;;5075821;28;20028;-39
2023/04/14 10:08:35;;;;;;;12.93;2.30;;;14.10;99.90;;;;;;5074454;28;20066;-39
2023/04/14 10:11:16;;;;;;;6.75;1.58;;;14.30;99.90;;;;;;5075969;28;20028;-39
2023/04/14 10:13:43;;;;;;;1.50;0.88;;;14.60;99.90;;;;;;5075698;28;20029;-39
2023/04/14 10:16:09;;;;;;;1.02;0.63;;;15.00;99.90;;;;;;5075614;28;20035;-39
2023/04/14 10:18:35;;;;;;;4.25;1.15;;;15.40;99.90;;;;;;5071474;28;20430;-35
2023/04/14 10:21:03;;;;;;;1.20;0.98;;;15.80;99.90;;;;;;5075444;28;20025;-36
2023/04/14 10:23:30;;;;;;;2.15;1.20;;;16.20;99.90;;;;;;5072936;28;20078;-39
2023/04/14 10:25:57;;;;;;;4.85;0.82;;;16.20;99.50;;;;;;5075697;28;20470;-30
2023/04/14 10:28:24;;;;;;;3.63;1.25;;;15.80;99.40;;;;;;5075286;28;20050;-37
2023/04/14 10:30:51;;;;;;;;;;;15.30;99.90;;;;;;5056012;28;20533;-34
2023/04/14 10:33:17;;;;;;;7.43;1.20;;;15.00;99.90;;;;;;5055565;28;20361;-39
2023/04/14 10:35:46;;;;;;;4.05;1.17;;;15.10;99.90;;;;;;5066043;28;20036;-33
2023/04/14 10:38:13;;;;;;;4.20;1.00;;;15.30;99.90;;;;;;5074047;28;20070;-39
2023/04/14 10:40:51;;;;;;;4.22;1.10;;;15.40;99.90;;;;;;5072752;28;20028;-37
2023/04/14 10:43:17;;;;;;;2.28;1.15;;;15.40;99.90;;;;;;5075000;28;20129;-35
2023/04/14 10:45:54;;;;;;;2.63;1.40;;;15.50;99.90;;;;;;5075328;28;20032;-35
2023/04/14 10:48:23;;;;;;;5.15;1.58;;;15.60;99.90;;;;;;5075138;28;20020;-35
2023/04/14 10:50:49;;;;;;;5.93;1.75;;;15.70;99.80;;;;;;5057872;28;20033;-38
2023/04/14 10:53:14;;;;;;;2.28;1.20;;;15.70;99.90;;;;;;5065360;28;20098;-35
2023/04/14 10:55:46;;;;;;;2.50;1.13;;;15.50;99.90;;;;;;5074651;28;20389;-36
2023/04/14 10:58:19;;;;;;;4.80;1.25;;;15.40;99.90;;;;;;5074740;28;20027;-34
2023/04/14 11:00:45;;;;;;;2.83;1.38;;;15.20;99.90;;;;;;5074820;28;20028;-35
2023/04/14 11:03:15;;;;;;;4.03;1.52;;;15.10;99.90;;;;;;5059511;28;20063;-32
2023/04/14 11:05:48;;;;;;;2.97;1.20;;;15.00;99.90;;;;;;5054763;28;20025;-35
2023/04/14 11:08:24;;;;;;;5.65;1.60;;;15.20;99.90;;;;;;5062951;28;20033;-37
2023/04/14 11:11:00;;;;;;;3.50;1.30;;;15.50;99.90;;;;;;5074934;28;20028;-38
2023/04/14 11:13:25;;;;;;;2.17;1.10;;;15.90;99.90;;;;;;5055965;28;20024;-37
2023/04/14 11:16:03;;;;;;;6.45;1.45;;;16.20;99.80;;;;;;5054534;28;20515;-36
2023/04/14 11:18:29;;;;;;;5.05;0.93;;;16.20;98.90;;;;;;5073759;28;20029;-38
2023/04/14 11:21:09;;;;;;;1.58;0.82;;;15.80;99.90;;;;;;5074318;28;20025;-33
2023/04/14 11:23:35;;;;;;;3.00;1.30;;;15.60;99.90;;;;;;5073518;28;20070;-36
2023/04/14 11:26:04;;;;;;;2.35;1.15;;;15.80;99.90;;;;;;5074355;28;20028;-37
2023/04/14 11:28:32;;;;;;;1.42;0.80;;;16.10;99.90;;;;;;5074228;28;20029;-34
2023/04/14 11:31:02;;;;;;;2.95;0.93;;;16.20;99.30;;;;;;5074238;28;20082;-33
2023/04/14 11:33:33;;;;;;;3.03;1.73;;;15.90;99.40;;;;;;5064765;28;20543;-40
2023/04/14 11:36:00;;;;;;;5.63;0.98;;;15.70;99.50;;;;;;5067730;28;20060;-40
2023/04/14 11:38:26;;;;;;;3.15;1.10;;;15.40;98.90;;;;;;5067303;28;20485;-35
2023/04/14 11:40:53;;;;;;;2.72;1.17;;;15.20;99.70;;;;;;5053909;28;20036;-37
2023/04/14 11:43:20;;;;;;;3.08;1.30;;;15.40;99.90;;;;;;5052546;28;20025;-40
2023/04/14 11:45:46;;;;;;;3.20;2.00;;;15.60;99.00;;;;;;5053929;28;20079;-37
2023/04/14 11:48:18;;;;;;;9.75;1.55;;;15.50;99.70;;;;;;5065490;28;20016;-38
2023/04/14 11:50:46;;;;;;;1.15;1.02;;;15.40;99.00;;;;;;5073807;28;20032;-32
2023/04/14 11:53:14;;;;;;;2.65;1.25;;;15.30;99.30;;;;;;5072040;28;20506;-39
2023/04/14 11:55:48;;;;;;;2.70;1.05;;;15.40;99.80;;;;;;5054259;28;20025;-35
2023/04/14 11:58:19;;;;;;;5.25;0.95;;;15.40;98.50;;;;;;5053756;28;20037;-33
2023/04/14 12:00:47;;;;;;;2.97;1.08;;;15.10;98.90;;;;;;5053855;28;20481;-31
2023/04/14 12:03:13;;;;;;;4.82;1.35;;;15.00;99.30;;;;;;5053406;28;20040;-39
2023/04/14 12:05:40;;;;;;;4.32;1.17;;;15.20;99.80;;;;;;5050711;28;20444;-37
2023/04/14 12:08:11;;;;;;;3.35;1.33;;;15.60;99.40;;;;;;5068964;28;20028;-35
2023/04/14 12:10:38;;;;;;;1.45;0.90;;;16.00;98.50;;;;;;5072031;28;20107;-38
2023/04/14 12:13:08;;;;;;;4.43;1.13;;;16.10;98.50;;;;;;5073615;28;20481;-32
2023/04/14 12:15:36;;;;;;;2.47;0.95;;;16.30;98.80;;;;;;5073213;28;20025;-38
2023/04/14 12:18:05;;;;;;;3.88;0.80;;;16.30;98.50;;;;;;5073190;28;20035;-33
2023/04/14 12:20:52;;;;;;;2.15;1.00;;;16.30;98.00;;;;;;5070678;28;20461;-38
2023/04/14 12:23:18;;;;;;;5.95;1.50;;;16.20;98.60;;;;;;5071964;28;20020;-34
2023/04/14 12:25:44;;;;;;;5.03;1.75;;;16.00;98.00;;;;;;5073328;28;20012;-36
2023/04/14 12:28:17;;;;;;;2.15;1.15;;;15.70;98.20;;;;;;5071915;28;20377;-37
2023/04/14 12:30:50;;;;;;;7.60;1.10;;;15.70;98.30;;;;;;5068174;28;20048;-37
2023/04/14 12:33:16;;;;;;;4.60;1.10;;;15.90;99.10;;;;;;5052981;28;20032;-34
2023/04/14 12:35:42;;;;;;;3.92;0.88;;;15.80;98.20;;;;;;5053033;28;20482;-37
2023/04/14 12:38:11;;;;;;;1.80;0.75;;;15.70;98.10;;;;;;5053192;28;20100;-36
2023/04/14 12:40:45;;;;;;;4.47;1.10;;;15.70;98.80;;;;;;5070795;28;20024;-36
2023/04/14 12:43:15;;;;;;;2.85;1.02;;;15.60;99.20;;;;;;5072779;28;20477;-38
2023/04/14 12:45:45;;;;;;;3.42;0.95;;;15.50;99.00;;;;;;5073123;28;20021;-38
2023/04/14 12:48:16;;;;;;;2.97;1.77;;;15.50;98.60;;;;;;5072801;28;20020;-39
2023/04/14 12:50:43;;;;;;;2.50;0.88;;;15.40;98.50;;;;;;5071484;28;20021;-35
2023/04/14 12:53:28;;;;;;;5.97;0.93;;;15.40;99.30;;;;;;5071517;28;20032;-38
2023/04/14 12:56:13;;;;;;;1.20;1.10;;;15.50;99.60;;;;;;5071209;28;20548;-37
2023/04/14 12:58:40;;;;;;;1.38;1.17;;;15.70;98.80;;;;;;5070856;28;20031;-31